sensor_id;sensor_type;location;lat;lon;timestamp;P1;durP1;ratioP1;P2;durP2;ratioP2
703;SDS011;335;48.694;9.120;2023-07-22T00:01:22;2.73;;;2.50;;
703;SDS011;335;48.694;9.120;2023-07-22T00:03:47;2.67;;;2.57;;
703;SDS011;335;48.694;9.120;2023-07-22T00:06:13;3.43;;;2.20;;
703;SDS011;335;48.694;9.120;2023-07-22T00:08:38;2.83;;;2.63;;
703;SDS011;335;48.694;9.120;2023-07-22T00:11:04;2.50;;;2.30;;
703;SDS011;335;48.694;9.120;2023-07-22T00:13:30;3.10;;;2.80;;
703;SDS011;335;48.694;9.120;2023-07-22T00:15:56;1.90;;;1.80;;
703;SDS011;335;48.694;9.120;2023-07-22T00:18:22;2.70;;;2.50;;
703;SDS011;335;48.694;9.120;2023-07-22T00:20:48;2.47;;;2.37;;
703;SDS011;335;48.694;9.120;2023-07-22T00:23:15;2.83;;;2.63;;
703;SDS011;335;48.694;9.120;2023-07-22T00:25:41;2.40;;;2.30;;
703;SDS011;335;48.694;9.120;2023-07-22T00:28:06;2.53;;;2.43;;
703;SDS011;335;48.694;9.120;2023-07-22T00:30:31;3.10;;;2.83;;
703;SDS011;335;48.694;9.120;2023-07-22T00:32:57;3.00;;;2.80;;
703;SDS011;335;48.694;9.120;2023-07-22T00:35:22;2.63;;;2.43;;
703;SDS011;335;48.694;9.120;2023-07-22T00:37:47;2.70;;;2.60;;
703;SDS011;335;48.694;9.120;2023-07-22T00:40:13;2.80;;;2.70;;
703;SDS011;335;48.694;9.120;2023-07-22T00:42:39;3.00;;;2.80;;
703;SDS011;335;48.694;9.120;2023-07-22T00:45:04;3.87;;;3.60;;
703;SDS011;335;48.694;9.120;2023-07-22T00:47:31;2.80;;;2.60;;
703;SDS011;335;48.694;9.120;2023-07-22T00:49:58;2.10;;;2.00;;
703;SDS011;335;48.694;9.120;2023-07-22T00:52:25;2.40;;;2.30;;
703;SDS011;335;48.694;9.120;2023-07-22T00:54:50;2.37;;;2.27;;
703;SDS011;335;48.694;9.120;2023-07-22T00:57:15;2.40;;;2.30;;
703;SDS011;335;48.694;9.120;2023-07-22T00:59:41;3.47;;;2.60;;
703;SDS011;335;48.694;9.120;2023-07-22T01:02:06;3.07;;;2.77;;
703;SDS011;335;48.694;9.120;2023-07-22T01:04:44;2.97;;;2.87;;
703;SDS011;335;48.694;9.120;2023-07-22T01:07:09;2.40;;;2.20;;
703;SDS011;335;48.694;9.120;2023-07-22T01:09:44;2.60;;;2.50;;
703;SDS011;335;48.694;9.120;2023-07-22T01:12:10;2.63;;;2.53;;
703;SDS011;335;48.694;9.120;2023-07-22T01:14:36;2.23;;;2.13;;
703;SDS011;335;48.694;9.120;2023-07-22T01:17:03;3.40;;;3.10;;
703;SDS011;335;48.694;9.120;2023-07-22T01:19:32;2.60;;;2.47;;
703;SDS011;335;48.694;9.120;2023-07-22T01:22:05;2.90;;;2.70;;
703;SDS011;335;48.694;9.120;2023-07-22T01:24:32;2.80;;;2.60;;
703;SDS011;335;48.694;9.120;2023-07-22T01:26:58;2.57;;;2.47;;
703;SDS011;335;48.694;9.120;2023-07-22T01:29:23;3.03;;;2.90;;
703;SDS011;335;48.694;9.120;2023-07-22T01:35:12;4.43;;;2.20;;
703;SDS011;335;48.694;9.120;2023-07-22T01:37:38;2.23;;;2.13;;
703;SDS011;335;48.694;9.120;2023-07-22T01:40:03;4.20;;;3.17;;
703;SDS011;335;48.694;9.120;2023-07-22T01:42:41;2.33;;;2.23;;
703;SDS011;335;48.694;9.120;2023-07-22T01:45:08;2.30;;;2.20;;
703;SDS011;335;48.694;9.120;2023-07-22T01:47:34;2.87;;;2.73;;
703;SDS011;335;48.694;9.120;2023-07-22T01:50:00;2.90;;;2.27;;
703;SDS011;335;48.694;9.120;2023-07-22T01:52:26;2.83;;;2.73;;
703;SDS011;335;48.694;9.120;2023-07-22T01:54:51;3.00;;;2.80;;
703;SDS011;335;48.694;9.120;2023-07-22T01:57:17;3.27;;;2.93;;
703;SDS011;335;48.694;9.120;2023-07-22T01:59:42;3.50;;;3.30;;
703;SDS011;335;48.694;9.120;2023-07-22T02:02:07;2.67;;;2.57;;
703;SDS011;335;48.694;9.120;2023-07-22T02:04:33;3.57;;;2.87;;
703;SDS011;335;48.694;9.120;2023-07-22T02:06:58;2.67;;;2.57;;
703;SDS011;335;48.694;9.120;2023-07-22T02:09:23;3.30;;;3.10;;
703;SDS011;335;48.694;9.120;2023-07-22T02:11:48;3.27;;;3.07;;
703;SDS011;335;48.694;9.120;2023-07-22T02:14:14;2.73;;;2.63;;
703;SDS011;335;48.694;9.120;2023-07-22T02:16:39;2.60;;;2.50;;
703;SDS011;335;48.694;9.120;2023-07-22T02:19:04;3.53;;;3.30;;
703;SDS011;335;48.694;9.120;2023-07-22T02:21:30;3.30;;;3.10;;
703;SDS011;335;48.694;9.120;2023-07-22T02:23:55;2.77;;;2.57;;
703;SDS011;335;48.694;9.120;2023-07-22T02:26:21;3.20;;;3.00;;
703;SDS011;335;48.694;9.120;2023-07-22T02:28:46;3.33;;;2.93;;
703;SDS011;335;48.694;9.120;2023-07-22T02:31:12;3.00;;;2.90;;
703;SDS011;335;48.694;9.120;2023-07-22T02:33:37;3.10;;;2.90;;
703;SDS011;335;48.694;9.120;2023-07-22T02:36:03;2.90;;;2.80;;
703;SDS011;335;48.694;9.120;2023-07-22T02:38:28;3.07;;;2.83;;
703;SDS011;335;48.694;9.120;2023-07-22T02:40:53;3.13;;;2.93;;
703;SDS011;335;48.694;9.120;2023-07-22T02:43:19;3.33;;;3.13;;
703;SDS011;335;48.694;9.120;2023-07-22T02:45:44;3.10;;;2.87;;
703;SDS011;335;48.694;9.120;2023-07-22T02:48:09;2.30;;;2.10;;
703;SDS011;335;48.694;9.120;2023-07-22T02:50:35;4.50;;;2.60;;
703;SDS011;335;48.694;9.120;2023-07-22T02:53:01;3.03;;;2.80;;
703;SDS011;335;48.694;9.120;2023-07-22T02:55:27;3.43;;;2.50;;
703;SDS011;335;48.694;9.120;2023-07-22T02:57:53;2.63;;;2.20;;
703;SDS011;335;48.694;9.120;2023-07-22T03:00:19;3.30;;;3.10;;
703;SDS011;335;48.694;9.120;2023-07-22T03:02:49;3.20;;;2.87;;
703;SDS011;335;48.694;9.120;2023-07-22T03:05:15;2.87;;;2.67;;
703;SDS011;335;48.694;9.120;2023-07-22T03:07:41;3.10;;;2.90;;
703;SDS011;335;48.694;9.120;2023-07-22T03:10:07;2.83;;;2.73;;
703;SDS011;335;48.694;9.120;2023-07-22T03:12:33;2.43;;;2.30;;
703;SDS011;335;48.694;9.120;2023-07-22T03:14:59;3.30;;;3.10;;
703;SDS011;335;48.694;9.120;2023-07-22T03:17:25;3.10;;;2.90;;
703;SDS011;335;48.694;9.120;2023-07-22T03:19:50;3.03;;;2.83;;
703;SDS011;335;48.694;9.120;2023-07-22T03:22:16;4.60;;;3.23;;
703;SDS011;335;48.694;9.120;2023-07-22T03:24:42;2.90;;;2.77;;
703;SDS011;335;48.694;9.120;2023-07-22T03:27:08;3.00;;;2.90;;
703;SDS011;335;48.694;9.120;2023-07-22T03:29:33;2.57;;;2.47;;
703;SDS011;335;48.694;9.120;2023-07-22T03:31:59;2.70;;;2.60;;
703;SDS011;335;48.694;9.120;2023-07-22T03:34:25;2.90;;;2.70;;
703;SDS011;335;48.694;9.120;2023-07-22T03:36:51;2.90;;;2.80;;
703;SDS011;335;48.694;9.120;2023-07-22T03:39:17;3.43;;;3.23;;
703;SDS011;335;48.694;9.120;2023-07-22T03:41:42;3.30;;;3.10;;
703;SDS011;335;48.694;9.120;2023-07-22T03:44:07;3.07;;;2.87;;
703;SDS011;335;48.694;9.120;2023-07-22T03:46:33;3.27;;;3.03;;
703;SDS011;335;48.694;9.120;2023-07-22T03:48:58;2.60;;;2.50;;
703;SDS011;335;48.694;9.120;2023-07-22T03:51:23;2.43;;;2.33;;
703;SDS011;335;48.694;9.120;2023-07-22T03:53:48;3.07;;;2.87;;
703;SDS011;335;48.694;9.120;2023-07-22T03:56:14;3.50;;;2.70;;
703;SDS011;335;48.694;9.120;2023-07-22T03:58:39;3.90;;;3.17;;
703;SDS011;335;48.694;9.120;2023-07-22T04:01:04;3.63;;;3.07;;
703;SDS011;335;48.694;9.120;2023-07-22T04:03:30;3.57;;;3.37;;
703;SDS011;335;48.694;9.120;2023-07-22T04:05:55;3.37;;;3.17;;
703;SDS011;335;48.694;9.120;2023-07-22T04:08:21;3.20;;;3.00;;
703;SDS011;335;48.694;9.120;2023-07-22T04:10:53;2.90;;;2.70;;
703;SDS011;335;48.694;9.120;2023-07-22T04:13:19;2.23;;;2.13;;
703;SDS011;335;48.694;9.120;2023-07-22T04:15:45;3.47;;;3.27;;
703;SDS011;335;48.694;9.120;2023-07-22T04:18:11;2.87;;;2.30;;
703;SDS011;335;48.694;9.120;2023-07-22T04:20:36;2.63;;;2.43;;
703;SDS011;335;48.694;9.120;2023-07-22T04:23:01;2.87;;;2.67;;
703;SDS011;335;48.694;9.120;2023-07-22T04:25:27;2.97;;;2.83;;
703;SDS011;335;48.694;9.120;2023-07-22T04:27:52;3.30;;;3.00;;
703;SDS011;335;48.694;9.120;2023-07-22T04:30:17;2.90;;;2.70;;
703;SDS011;335;48.694;9.120;2023-07-22T04:32:47;4.33;;;2.67;;
703;SDS011;335;48.694;9.120;2023-07-22T04:35:18;2.50;;;2.30;;
703;SDS011;335;48.694;9.120;2023-07-22T04:37:44;2.80;;;2.57;;
703;SDS011;335;48.694;9.120;2023-07-22T04:40:10;2.40;;;2.20;;
703;SDS011;335;48.694;9.120;2023-07-22T04:42:39;2.80;;;2.60;;
703;SDS011;335;48.694;9.120;2023-07-22T04:45:05;3.20;;;2.83;;
703;SDS011;335;48.694;9.120;2023-07-22T04:47:31;4.23;;;2.57;;
703;SDS011;335;48.694;9.120;2023-07-22T04:49:56;2.50;;;2.30;;
703;SDS011;335;48.694;9.120;2023-07-22T04:52:22;3.10;;;2.93;;
703;SDS011;335;48.694;9.120;2023-07-22T04:54:47;2.87;;;2.67;;
703;SDS011;335;48.694;9.120;2023-07-22T04:57:12;2.40;;;2.20;;
703;SDS011;335;48.694;9.120;2023-07-22T04:59:38;2.90;;;2.70;;
703;SDS011;335;48.694;9.120;2023-07-22T05:02:03;2.83;;;2.60;;
703;SDS011;335;48.694;9.120;2023-07-22T05:04:29;2.67;;;2.47;;
703;SDS011;335;48.694;9.120;2023-07-22T05:06:54;2.57;;;2.37;;
703;SDS011;335;48.694;9.120;2023-07-22T05:09:19;2.40;;;2.30;;
703;SDS011;335;48.694;9.120;2023-07-22T05:11:45;2.43;;;2.30;;
703;SDS011;335;48.694;9.120;2023-07-22T05:14:10;3.07;;;2.87;;
703;SDS011;335;48.694;9.120;2023-07-22T05:16:36;3.03;;;2.83;;
703;SDS011;335;48.694;9.120;2023-07-22T05:19:01;2.10;;;2.00;;
703;SDS011;335;48.694;9.120;2023-07-22T05:21:26;5.00;;;2.80;;
703;SDS011;335;48.694;9.120;2023-07-22T05:23:52;3.33;;;2.60;;
703;SDS011;335;48.694;9.120;2023-07-22T05:26:17;2.33;;;2.20;;
703;SDS011;335;48.694;9.120;2023-07-22T05:28:42;3.53;;;2.93;;
703;SDS011;335;48.694;9.120;2023-07-22T05:31:07;2.70;;;2.50;;
703;SDS011;335;48.694;9.120;2023-07-22T05:33:33;2.43;;;2.33;;
703;SDS011;335;48.694;9.120;2023-07-22T05:35:58;2.20;;;2.10;;
703;SDS011;335;48.694;9.120;2023-07-22T05:38:24;2.70;;;2.50;;
703;SDS011;335;48.694;9.120;2023-07-22T05:40:49;2.83;;;2.23;;
703;SDS011;335;48.694;9.120;2023-07-22T05:43:14;2.00;;;1.90;;
703;SDS011;335;48.694;9.120;2023-07-22T05:45:40;1.93;;;1.83;;
703;SDS011;335;48.694;9.120;2023-07-22T05:48:05;2.30;;;2.20;;
703;SDS011;335;48.694;9.120;2023-07-22T05:50:30;2.70;;;2.50;;
703;SDS011;335;48.694;9.120;2023-07-22T05:52:56;1.90;;;1.80;;
703;SDS011;335;48.694;9.120;2023-07-22T05:55:21;2.03;;;1.93;;
703;SDS011;335;48.694;9.120;2023-07-22T05:57:46;1.93;;;1.83;;
703;SDS011;335;48.694;9.120;2023-07-22T06:00:12;2.70;;;2.50;;
703;SDS011;335;48.694;9.120;2023-07-22T06:02:38;2.40;;;2.30;;
703;SDS011;335;48.694;9.120;2023-07-22T06:05:03;2.30;;;2.20;;
703;SDS011;335;48.694;9.120;2023-07-22T06:07:29;2.73;;;2.10;;
703;SDS011;335;48.694;9.120;2023-07-22T06:09:54;2.10;;;2.00;;
703;SDS011;335;48.694;9.120;2023-07-22T06:12:20;2.23;;;2.13;;
703;SDS011;335;48.694;9.120;2023-07-22T06:14:45;2.60;;;2.40;;
703;SDS011;335;48.694;9.120;2023-07-22T06:17:10;3.00;;;2.63;;
703;SDS011;335;48.694;9.120;2023-07-22T06:19:36;2.23;;;2.13;;
703;SDS011;335;48.694;9.120;2023-07-22T06:22:01;2.40;;;2.20;;
703;SDS011;335;48.694;9.120;2023-07-22T06:24:26;4.03;;;2.60;;
703;SDS011;335;48.694;9.120;2023-07-22T06:26:52;4.40;;;2.30;;
703;SDS011;335;48.694;9.120;2023-07-22T06:29:17;2.50;;;2.30;;
703;SDS011;335;48.694;9.120;2023-07-22T06:31:42;2.00;;;1.90;;
703;SDS011;335;48.694;9.120;2023-07-22T06:34:07;2.60;;;2.40;;
703;SDS011;335;48.694;9.120;2023-07-22T06:36:33;3.13;;;2.70;;
703;SDS011;335;48.694;9.120;2023-07-22T06:38:59;2.33;;;2.23;;
703;SDS011;335;48.694;9.120;2023-07-22T06:41:24;2.60;;;2.40;;
703;SDS011;335;48.694;9.120;2023-07-22T06:43:49;2.53;;;2.43;;
703;SDS011;335;48.694;9.120;2023-07-22T06:46:15;2.30;;;2.20;;
703;SDS011;335;48.694;9.120;2023-07-22T06:48:41;2.83;;;2.63;;
703;SDS011;335;48.694;9.120;2023-07-22T06:51:06;3.03;;;2.20;;
703;SDS011;335;48.694;9.120;2023-07-22T06:53:32;2.50;;;2.37;;
703;SDS011;335;48.694;9.120;2023-07-22T06:55:58;2.40;;;2.30;;
703;SDS011;335;48.694;9.120;2023-07-22T06:58:23;2.13;;;2.03;;
703;SDS011;335;48.694;9.120;2023-07-22T07:00:52;2.47;;;2.27;;
703;SDS011;335;48.694;9.120;2023-07-22T07:03:18;2.47;;;2.27;;
703;SDS011;335;48.694;9.120;2023-07-22T07:05:43;2.60;;;2.10;;
703;SDS011;335;48.694;9.120;2023-07-22T07:08:09;2.30;;;2.20;;
703;SDS011;335;48.694;9.120;2023-07-22T07:10:37;2.10;;;1.70;;
703;SDS011;335;48.694;9.120;2023-07-22T07:13:03;2.90;;;2.70;;
703;SDS011;335;48.694;9.120;2023-07-22T07:15:29;2.20;;;1.60;;
703;SDS011;335;48.694;9.120;2023-07-22T07:17:54;2.30;;;2.10;;
703;SDS011;335;48.694;9.120;2023-07-22T07:20:19;1.90;;;1.80;;
703;SDS011;335;48.694;9.120;2023-07-22T07:22:45;1.97;;;1.77;;
703;SDS011;335;48.694;9.120;2023-07-22T07:25:10;2.10;;;1.73;;
703;SDS011;335;48.694;9.120;2023-07-22T07:27:36;2.87;;;2.70;;
703;SDS011;335;48.694;9.120;2023-07-22T07:30:02;2.63;;;2.20;;
703;SDS011;335;48.694;9.120;2023-07-22T07:32:27;2.30;;;2.10;;
703;SDS011;335;48.694;9.120;2023-07-22T07:34:53;2.37;;;2.03;;
703;SDS011;335;48.694;9.120;2023-07-22T07:37:18;3.10;;;2.70;;
703;SDS011;335;48.694;9.120;2023-07-22T07:39:44;2.00;;;1.80;;
703;SDS011;335;48.694;9.120;2023-07-22T07:42:09;1.60;;;1.60;;
703;SDS011;335;48.694;9.120;2023-07-22T07:44:34;1.90;;;1.80;;
703;SDS011;335;48.694;9.120;2023-07-22T07:46:59;1.93;;;1.83;;
703;SDS011;335;48.694;9.120;2023-07-22T07:49:25;2.10;;;1.80;;
703;SDS011;335;48.694;9.120;2023-07-22T07:51:50;2.60;;;1.90;;
703;SDS011;335;48.694;9.120;2023-07-22T07:54:15;2.00;;;1.90;;
703;SDS011;335;48.694;9.120;2023-07-22T07:56:41;1.90;;;1.30;;
703;SDS011;335;48.694;9.120;2023-07-22T07:59:06;1.67;;;1.57;;
703;SDS011;335;48.694;9.120;2023-07-22T08:01:33;2.03;;;1.73;;
703;SDS011;335;48.694;9.120;2023-07-22T08:04:00;1.70;;;1.60;;
703;SDS011;335;48.694;9.120;2023-07-22T08:06:25;1.00;;;1.00;;
703;SDS011;335;48.694;9.120;2023-07-22T08:08:51;1.60;;;1.50;;
703;SDS011;335;48.694;9.120;2023-07-22T08:11:16;3.73;;;1.50;;
703;SDS011;335;48.694;9.120;2023-07-22T08:13:42;1.80;;;1.70;;
703;SDS011;335;48.694;9.120;2023-07-22T08:16:09;2.97;;;1.50;;
703;SDS011;335;48.694;9.120;2023-07-22T08:18:36;2.93;;;1.57;;
703;SDS011;335;48.694;9.120;2023-07-22T08:21:02;1.43;;;1.10;;
703;SDS011;335;48.694;9.120;2023-07-22T08:23:28;1.90;;;1.67;;
703;SDS011;335;48.694;9.120;2023-07-22T08:25:54;3.43;;;1.80;;
703;SDS011;335;48.694;9.120;2023-07-22T08:28:19;1.77;;;1.50;;
703;SDS011;335;48.694;9.120;2023-07-22T08:30:44;1.87;;;1.77;;
703;SDS011;335;48.694;9.120;2023-07-22T08:33:10;1.40;;;1.33;;
703;SDS011;335;48.694;9.120;2023-07-22T08:35:36;1.83;;;1.40;;
703;SDS011;335;48.694;9.120;2023-07-22T08:38:02;1.73;;;1.63;;
703;SDS011;335;48.694;9.120;2023-07-22T08:40:38;1.57;;;1.33;;
703;SDS011;335;48.694;9.120;2023-07-22T08:43:04;1.33;;;1.30;;
703;SDS011;335;48.694;9.120;2023-07-22T08:45:31;1.70;;;1.60;;
703;SDS011;335;48.694;9.120;2023-07-22T08:47:59;1.50;;;1.40;;
703;SDS011;335;48.694;9.120;2023-07-22T08:50:29;1.43;;;1.10;;
703;SDS011;335;48.694;9.120;2023-07-22T08:52:55;1.50;;;1.40;;
703;SDS011;335;48.694;9.120;2023-07-22T08:55:22;1.00;;;1.00;;
703;SDS011;335;48.694;9.120;2023-07-22T08:57:48;1.10;;;1.10;;
703;SDS011;335;48.694;9.120;2023-07-22T09:00:14;1.07;;;1.07;;
703;SDS011;335;48.694;9.120;2023-07-22T09:02:41;1.20;;;1.20;;
703;SDS011;335;48.694;9.120;2023-07-22T09:05:06;1.13;;;1.00;;
703;SDS011;335;48.694;9.120;2023-07-22T09:07:34;1.23;;;1.17;;
703;SDS011;335;48.694;9.120;2023-07-22T09:09:59;1.30;;;1.30;;
703;SDS011;335;48.694;9.120;2023-07-22T09:12:25;0.97;;;0.97;;
703;SDS011;335;48.694;9.120;2023-07-22T09:14:51;2.00;;;1.10;;
703;SDS011;335;48.694;9.120;2023-07-22T09:17:17;3.23;;;1.50;;
703;SDS011;335;48.694;9.120;2023-07-22T09:19:42;1.73;;;1.30;;
703;SDS011;335;48.694;9.120;2023-07-22T09:22:08;1.10;;;1.10;;
703;SDS011;335;48.694;9.120;2023-07-22T09:24:33;1.07;;;1.07;;
703;SDS011;335;48.694;9.120;2023-07-22T09:26:59;0.90;;;0.90;;
703;SDS011;335;48.694;9.120;2023-07-22T09:29:35;1.33;;;1.33;;
703;SDS011;335;48.694;9.120;2023-07-22T09:32:04;3.53;;;1.17;;
703;SDS011;335;48.694;9.120;2023-07-22T09:34:30;1.17;;;1.17;;
703;SDS011;335;48.694;9.120;2023-07-22T09:36:56;1.10;;;1.10;;
703;SDS011;335;48.694;9.120;2023-07-22T09:39:23;1.10;;;1.10;;
703;SDS011;335;48.694;9.120;2023-07-22T09:41:49;1.50;;;1.40;;
703;SDS011;335;48.694;9.120;2023-07-22T09:44:15;1.27;;;1.23;;
703;SDS011;335;48.694;9.120;2023-07-22T09:46:40;1.40;;;1.30;;
703;SDS011;335;48.694;9.120;2023-07-22T09:49:07;1.50;;;1.40;;
703;SDS011;335;48.694;9.120;2023-07-22T09:51:40;1.30;;;1.20;;
703;SDS011;335;48.694;9.120;2023-07-22T09:54:06;1.00;;;1.00;;
703;SDS011;335;48.694;9.120;2023-07-22T09:56:32;1.03;;;1.00;;
703;SDS011;335;48.694;9.120;2023-07-22T09:58:58;0.80;;;0.80;;
703;SDS011;335;48.694;9.120;2023-07-22T10:01:24;1.20;;;1.20;;
703;SDS011;335;48.694;9.120;2023-07-22T10:03:52;0.90;;;0.90;;
703;SDS011;335;48.694;9.120;2023-07-22T10:06:19;0.90;;;0.90;;
703;SDS011;335;48.694;9.120;2023-07-22T10:08:46;1.00;;;1.00;;
703;SDS011;335;48.694;9.120;2023-07-22T10:11:13;1.33;;;1.07;;
703;SDS011;335;48.694;9.120;2023-07-22T10:13:39;1.57;;;1.03;;
703;SDS011;335;48.694;9.120;2023-07-22T10:16:05;0.80;;;0.80;;
703;SDS011;335;48.694;9.120;2023-07-22T10:18:30;0.87;;;0.87;;
703;SDS011;335;48.694;9.120;2023-07-22T10:20:57;1.07;;;1.00;;
703;SDS011;335;48.694;9.120;2023-07-22T10:23:23;1.10;;;1.10;;
703;SDS011;335;48.694;9.120;2023-07-22T10:25:50;1.20;;;1.20;;
703;SDS011;335;48.694;9.120;2023-07-22T10:28:17;1.27;;;1.20;;
703;SDS011;335;48.694;9.120;2023-07-22T10:30:44;1.13;;;1.03;;
703;SDS011;335;48.694;9.120;2023-07-22T10:33:10;1.20;;;1.20;;
703;SDS011;335;48.694;9.120;2023-07-22T10:35:42;1.20;;;1.20;;
703;SDS011;335;48.694;9.120;2023-07-22T10:38:13;1.13;;;1.13;;
703;SDS011;335;48.694;9.120;2023-07-22T10:40:49;1.10;;;1.10;;
703;SDS011;335;48.694;9.120;2023-07-22T10:43:16;2.40;;;1.57;;
703;SDS011;335;48.694;9.120;2023-07-22T10:45:55;1.50;;;1.47;;
703;SDS011;335;48.694;9.120;2023-07-22T10:48:23;1.30;;;1.30;;
703;SDS011;335;48.694;9.120;2023-07-22T10:50:53;1.23;;;1.23;;
703;SDS011;335;48.694;9.120;2023-07-22T11:11:53;1.40;;;1.40;;
703;SDS011;335;48.694;9.120;2023-07-22T11:14:23;1.13;;;1.13;;
703;SDS011;335;48.694;9.120;2023-07-22T11:16:52;1.53;;;1.43;;
703;SDS011;335;48.694;9.120;2023-07-22T11:19:18;3.37;;;1.90;;
703;SDS011;335;48.694;9.120;2023-07-22T11:21:49;1.27;;;1.27;;
703;SDS011;335;48.694;9.120;2023-07-22T11:24:15;1.40;;;1.30;;
703;SDS011;335;48.694;9.120;2023-07-22T11:26:41;1.87;;;1.77;;
703;SDS011;335;48.694;9.120;2023-07-22T11:29:07;1.50;;;1.43;;
703;SDS011;335;48.694;9.120;2023-07-22T11:31:37;1.60;;;1.50;;
703;SDS011;335;48.694;9.120;2023-07-22T11:34:07;1.97;;;1.87;;
703;SDS011;335;48.694;9.120;2023-07-22T11:36:36;2.10;;;1.23;;
703;SDS011;335;48.694;9.120;2023-07-22T11:39:02;1.60;;;1.50;;
703;SDS011;335;48.694;9.120;2023-07-22T11:41:28;1.43;;;1.40;;
703;SDS011;335;48.694;9.120;2023-07-22T11:43:56;2.10;;;1.33;;
703;SDS011;335;48.694;9.120;2023-07-22T11:46:22;1.83;;;1.73;;
703;SDS011;335;48.694;9.120;2023-07-22T11:48:51;1.90;;;1.50;;
703;SDS011;335;48.694;9.120;2023-07-22T11:51:17;1.70;;;1.60;;
703;SDS011;335;48.694;9.120;2023-07-22T11:53:47;1.20;;;1.20;;
703;SDS011;335;48.694;9.120;2023-07-22T11:56:27;1.30;;;1.30;;
703;SDS011;335;48.694;9.120;2023-07-22T11:58:54;1.30;;;1.20;;
703;SDS011;335;48.694;9.120;2023-07-22T12:01:20;1.20;;;1.20;;
703;SDS011;335;48.694;9.120;2023-07-22T12:03:46;1.87;;;1.50;;
703;SDS011;335;48.694;9.120;2023-07-22T12:06:12;1.40;;;1.40;;
703;SDS011;335;48.694;9.120;2023-07-22T12:08:45;1.77;;;1.03;;
703;SDS011;335;48.694;9.120;2023-07-22T12:11:21;1.10;;;1.10;;
703;SDS011;335;48.694;9.120;2023-07-22T12:13:49;1.60;;;1.47;;
703;SDS011;335;48.694;9.120;2023-07-22T12:16:29;1.70;;;1.60;;
703;SDS011;335;48.694;9.120;2023-07-22T12:18:54;2.30;;;1.40;;
703;SDS011;335;48.694;9.120;2023-07-22T12:21:19;1.53;;;1.53;;
703;SDS011;335;48.694;9.120;2023-07-22T12:23:45;1.20;;;1.20;;
703;SDS011;335;48.694;9.120;2023-07-22T12:26:11;1.30;;;1.10;;
703;SDS011;335;48.694;9.120;2023-07-22T12:28:36;6.20;;;5.77;;
703;SDS011;335;48.694;9.120;2023-07-22T12:31:01;1.70;;;1.60;;
703;SDS011;335;48.694;9.120;2023-07-22T12:33:27;1.70;;;1.60;;
703;SDS011;335;48.694;9.120;2023-07-22T12:35:55;1.40;;;1.23;;
703;SDS011;335;48.694;9.120;2023-07-22T12:38:21;1.30;;;1.30;;
703;SDS011;335;48.694;9.120;2023-07-22T12:40:47;1.57;;;1.47;;
703;SDS011;335;48.694;9.120;2023-07-22T12:43:12;1.70;;;1.60;;
703;SDS011;335;48.694;9.120;2023-07-22T12:45:37;3.27;;;1.33;;
703;SDS011;335;48.694;9.120;2023-07-22T12:48:03;2.23;;;1.50;;
703;SDS011;335;48.694;9.120;2023-07-22T12:50:30;1.00;;;1.00;;
703;SDS011;335;48.694;9.120;2023-07-22T12:52:56;1.90;;;1.80;;
703;SDS011;335;48.694;9.120;2023-07-22T12:55:22;1.43;;;1.33;;
703;SDS011;335;48.694;9.120;2023-07-22T12:57:47;1.87;;;1.60;;
703;SDS011;335;48.694;9.120;2023-07-22T13:00:13;2.10;;;1.90;;
703;SDS011;335;48.694;9.120;2023-07-22T13:02:39;1.93;;;1.60;;
703;SDS011;335;48.694;9.120;2023-07-22T13:05:04;2.43;;;1.60;;
703;SDS011;335;48.694;9.120;2023-07-22T13:07:31;1.57;;;1.57;;
703;SDS011;335;48.694;9.120;2023-07-22T13:09:56;3.70;;;2.10;;
703;SDS011;335;48.694;9.120;2023-07-22T13:12:23;1.60;;;1.53;;
703;SDS011;335;48.694;9.120;2023-07-22T13:14:48;1.73;;;1.57;;
703;SDS011;335;48.694;9.120;2023-07-22T13:17:13;1.83;;;1.73;;
703;SDS011;335;48.694;9.120;2023-07-22T13:19:39;1.50;;;1.50;;
703;SDS011;335;48.694;9.120;2023-07-22T13:22:04;1.60;;;1.60;;
703;SDS011;335;48.694;9.120;2023-07-22T13:24:29;2.13;;;2.03;;
703;SDS011;335;48.694;9.120;2023-07-22T13:26:55;2.03;;;1.93;;
703;SDS011;335;48.694;9.120;2023-07-22T13:29:20;2.03;;;1.93;;
703;SDS011;335;48.694;9.120;2023-07-22T13:31:45;1.73;;;1.50;;
703;SDS011;335;48.694;9.120;2023-07-22T13:34:11;2.20;;;2.10;;
703;SDS011;335;48.694;9.120;2023-07-22T13:36:36;1.90;;;1.80;;
703;SDS011;335;48.694;9.120;2023-07-22T13:39:01;1.90;;;1.80;;
703;SDS011;335;48.694;9.120;2023-07-22T13:41:27;1.97;;;1.87;;
703;SDS011;335;48.694;9.120;2023-07-22T13:43:53;2.00;;;1.87;;
703;SDS011;335;48.694;9.120;2023-07-22T13:46:18;1.90;;;1.80;;
703;SDS011;335;48.694;9.120;2023-07-22T13:48:43;2.10;;;2.00;;
703;SDS011;335;48.694;9.120;2023-07-22T13:51:09;4.70;;;1.93;;
703;SDS011;335;48.694;9.120;2023-07-22T13:53:34;1.80;;;1.70;;
703;SDS011;335;48.694;9.120;2023-07-22T13:55:59;2.90;;;2.30;;
703;SDS011;335;48.694;9.120;2023-07-22T13:58:24;2.57;;;2.47;;
703;SDS011;335;48.694;9.120;2023-07-22T14:00:50;2.23;;;2.13;;
703;SDS011;335;48.694;9.120;2023-07-22T14:03:16;3.47;;;2.10;;
703;SDS011;335;48.694;9.120;2023-07-22T14:05:41;1.80;;;1.70;;
703;SDS011;335;48.694;9.120;2023-07-22T14:08:07;2.33;;;2.23;;
703;SDS011;335;48.694;9.120;2023-07-22T14:10:32;2.13;;;2.03;;
703;SDS011;335;48.694;9.120;2023-07-22T14:12:57;2.17;;;2.07;;
703;SDS011;335;48.694;9.120;2023-07-22T14:15:23;2.27;;;2.17;;
703;SDS011;335;48.694;9.120;2023-07-22T14:17:48;1.83;;;1.73;;
703;SDS011;335;48.694;9.120;2023-07-22T14:20:13;2.63;;;2.43;;
703;SDS011;335;48.694;9.120;2023-07-22T14:22:39;2.33;;;2.23;;
703;SDS011;335;48.694;9.120;2023-07-22T14:25:05;1.93;;;1.83;;
703;SDS011;335;48.694;9.120;2023-07-22T14:27:30;1.70;;;1.60;;
703;SDS011;335;48.694;9.120;2023-07-22T14:29:55;1.97;;;1.87;;
703;SDS011;335;48.694;9.120;2023-07-22T14:32:21;2.10;;;2.00;;
703;SDS011;335;48.694;9.120;2023-07-22T14:34:46;2.60;;;2.40;;
703;SDS011;335;48.694;9.120;2023-07-22T14:37:12;3.03;;;2.73;;
703;SDS011;335;48.694;9.120;2023-07-22T14:39:39;2.90;;;2.40;;
703;SDS011;335;48.694;9.120;2023-07-22T14:42:04;2.47;;;2.37;;
703;SDS011;335;48.694;9.120;2023-07-22T14:44:30;2.00;;;1.90;;
703;SDS011;335;48.694;9.120;2023-07-22T14:46:55;2.40;;;2.30;;
703;SDS011;335;48.694;9.120;2023-07-22T14:49:21;2.20;;;2.10;;
703;SDS011;335;48.694;9.120;2023-07-22T14:51:46;2.70;;;2.50;;
703;SDS011;335;48.694;9.120;2023-07-22T14:54:11;2.60;;;2.40;;
703;SDS011;335;48.694;9.120;2023-07-22T14:56:36;2.03;;;1.93;;
703;SDS011;335;48.694;9.120;2023-07-22T14:59:02;3.10;;;2.70;;
703;SDS011;335;48.694;9.120;2023-07-22T15:01:31;1.97;;;1.87;;
703;SDS011;335;48.694;9.120;2023-07-22T15:04:01;2.73;;;2.63;;
703;SDS011;335;48.694;9.120;2023-07-22T15:06:26;2.87;;;2.67;;
703;SDS011;335;48.694;9.120;2023-07-22T15:08:52;2.50;;;2.30;;
703;SDS011;335;48.694;9.120;2023-07-22T15:11:17;3.00;;;2.80;;
703;SDS011;335;48.694;9.120;2023-07-22T15:13:43;2.40;;;2.30;;
703;SDS011;335;48.694;9.120;2023-07-22T15:16:08;2.33;;;2.13;;
703;SDS011;335;48.694;9.120;2023-07-22T15:18:33;2.27;;;2.17;;
703;SDS011;335;48.694;9.120;2023-07-22T15:20:59;2.60;;;2.50;;
703;SDS011;335;48.694;9.120;2023-07-22T15:23:24;2.50;;;2.30;;
703;SDS011;335;48.694;9.120;2023-07-22T15:25:49;2.20;;;2.10;;
703;SDS011;335;48.694;9.120;2023-07-22T15:28:15;4.17;;;2.60;;
703;SDS011;335;48.694;9.120;2023-07-22T15:30:40;2.40;;;2.30;;
703;SDS011;335;48.694;9.120;2023-07-22T15:33:06;2.13;;;2.03;;
703;SDS011;335;48.694;9.120;2023-07-22T15:35:31;2.37;;;2.17;;
703;SDS011;335;48.694;9.120;2023-07-22T15:37:56;3.03;;;2.77;;
703;SDS011;335;48.694;9.120;2023-07-22T15:40:22;2.23;;;2.10;;
703;SDS011;335;48.694;9.120;2023-07-22T15:42:48;3.10;;;2.70;;
703;SDS011;335;48.694;9.120;2023-07-22T15:45:13;2.67;;;2.47;;
703;SDS011;335;48.694;9.120;2023-07-22T15:47:38;2.77;;;2.63;;
703;SDS011;335;48.694;9.120;2023-07-22T15:50:04;2.20;;;2.10;;
703;SDS011;335;48.694;9.120;2023-07-22T15:52:30;2.33;;;2.23;;
703;SDS011;335;48.694;9.120;2023-07-22T15:54:55;2.40;;;2.30;;
703;SDS011;335;48.694;9.120;2023-07-22T15:57:20;1.93;;;1.83;;
703;SDS011;335;48.694;9.120;2023-07-22T15:59:46;1.97;;;1.87;;